Time;durP1;ratioP1;P1;durP2;ratioP2;P2;SDS_P1;SDS_P2;PMS_P1;PMS_P2;Temp;Humidity;BMP_temperature;BMP_pressure;BME280_temperature;BME280_humidity;BME280_pressure;Samples;Min_cycle;Max_cycle;Signal;HPM_P1;HPM_P2
2023/09/18 07:01:28;;;;;;;0.60;0.60;;;19.20;99.90;22.30;100069.00;;;;6186839;22;1480630;-79
2023/09/18 07:04:04;;;;;;;2.25;1.25;;;19.40;99.90;21.60;100080.00;;;;6282549;22;20141;-79
2023/09/18 07:06:37;;;;;;;0.40;0.40;;;19.30;99.90;22.50;100046.00;;;;6282619;22;20136;-79
2023/09/18 07:09:13;;;;;;;0.40;0.40;;;19.50;99.90;21.90;100080.00;;;;6309567;22;20151;-77
2023/09/18 07:11:47;;;;;;;1.15;1.05;;;19.60;99.90;22.00;100059.00;;;;6281612;22;20156;-75
2023/09/18 07:14:17;;;;;;;0.40;0.40;;;19.50;99.90;22.50;100067.00;;;;6256420;22;20580;-75
2023/09/18 07:16:43;;;;;;;0.75;0.75;;;19.70;99.90;22.20;100024.00;;;;6282353;22;20507;-75
2023/09/18 07:19:16;;;;;;;0.77;0.77;;;19.70;99.90;22.40;100059.00;;;;6281984;22;20148;-73
2023/09/18 07:21:47;;;;;;;0.25;0.25;;;19.80;99.90;22.10;100027.00;;;;6256070;22;20152;-72
2023/09/18 07:24:16;;;;;;;0.63;0.63;;;19.70;99.90;22.30;100075.00;;;;6281633;22;20223;-73
2023/09/18 07:26:47;;;;;;;0.73;0.73;;;19.80;99.90;22.60;100062.00;;;;6282273;22;20591;-73
2023/09/18 07:29:16;;;;;;;0.20;0.20;;;19.90;99.90;23.60;100080.00;;;;6281870;22;20136;-73
2023/09/18 07:31:45;;;;;;;0.50;0.50;;;20.60;99.90;23.90;100074.00;;;;6309118;22;20282;-73
2023/09/18 07:34:19;;;;;;;0.52;0.52;;;20.80;99.90;23.40;100077.00;;;;6281948;22;20137;-73
2023/09/18 07:36:55;;;;;;;0.22;0.22;;;21.00;99.90;23.30;100076.00;;;;6256288;22;20251;-73
2023/09/18 07:39:28;;;;;;;0.80;0.80;;;20.60;99.90;25.10;100091.00;;;;6282427;22;20140;-73
2023/09/18 07:42:02;;;;;;;0.50;0.50;;;21.30;99.90;24.50;100061.00;;;;6308176;22;20148;-72
2023/09/18 07:44:35;;;;;;;0.20;0.20;;;21.60;99.90;25.20;100103.00;;;;6281125;22;20167;-72
2023/09/18 07:47:41;;;;;;;0.20;0.20;;;21.80;99.90;24.70;100119.00;;;;6280835;22;20163;-72
2023/09/18 07:50:08;;;;;;;0.30;0.30;;;21.80;99.90;24.80;100115.00;;;;6288204;22;20534;-72
2023/09/18 07:52:36;;;;;;;0.45;0.45;;;21.60;99.90;23.20;100106.00;;;;6280871;22;20673;-72
2023/09/18 07:55:05;;;;;;;0.20;0.20;;;21.10;99.90;24.60;100119.00;;;;6281415;22;20149;-72
2023/09/18 07:57:34;;;;;;;2.05;1.33;;;21.10;99.90;23.10;100113.00;;;;6280438;22;20143;-72
2023/09/18 08:00:13;;;;;;;0.30;0.30;;;20.80;99.90;23.20;100117.00;;;;6272588;22;20248;-73
2023/09/18 08:02:46;;;;;;;3.80;0.60;;;20.60;99.90;22.70;100103.00;;;;6227857;22;20161;-73
2023/09/18 08:05:15;;;;;;;0.43;0.43;;;20.20;99.90;24.10;100115.00;;;;6250088;22;20134;-73
2023/09/18 08:07:43;;;;;;;0.95;0.40;;;20.50;99.90;23.30;100066.00;;;;6277479;22;20141;-72
2023/09/18 08:10:10;;;;;;;0.30;0.30;;;20.40;99.90;23.20;100107.00;;;;6250284;22;20158;-73
2023/09/18 08:12:36;;;;;;;0.30;0.30;;;20.40;99.90;24.10;100083.00;;;;6250028;22;20245;-74
2023/09/18 08:15:10;;;;;;;0.40;0.40;;;20.50;99.90;24.60;100116.00;;;;6225105;22;20181;-73
2023/09/18 08:17:36;;;;;;;0.32;0.32;;;20.90;99.90;25.00;100114.00;;;;6225238;22;20747;-69
2023/09/18 08:20:10;;;;;;;0.50;0.50;;;21.20;99.90;25.40;100131.00;;;;6251214;22;20171;-72
2023/09/18 08:22:37;;;;;;;0.30;0.30;;;21.50;99.90;24.40;100126.00;;;;6226691;22;20156;-79
2023/09/18 08:25:07;;;;;;;0.30;0.30;;;21.30;99.90;25.00;100142.00;;;;6225179;22;20161;-73
2023/09/18 08:27:37;;;;;;;0.30;0.30;;;21.40;99.90;23.50;100118.00;;;;6225907;22;20183;-79
2023/09/18 08:30:06;;;;;;;0.30;0.30;;;21.00;99.90;24.40;100143.00;;;;6251042;22;20169;-76
2023/09/18 08:32:53;;;;;;;0.40;0.40;;;21.20;99.90;24.60;100154.00;;;;6224022;22;20268;-75
2023/09/18 08:35:39;;;;;;;0.30;0.30;;;21.50;99.90;24.70;100140.00;;;;6250671;22;20137;-75
2023/09/18 08:38:08;;;;;;;0.95;0.82;;;21.20;99.90;23.00;100137.00;;;;6221597;22;20632;-76
2023/09/18 08:40:36;;;;;;;2.22;1.83;;;21.00;99.90;22.70;100145.00;;;;6250470;22;20172;-75
2023/09/18 08:43:29;;;;;;;0.32;0.32;;;20.60;99.90;23.20;100153.00;;;;6248914;22;20172;-75
2023/09/18 08:46:01;;;;;;;0.70;0.70;;;20.20;99.90;23.40;100160.00;;;;6246152;22;20160;-75
2023/09/18 08:48:35;;;;;;;1.83;1.75;;;20.50;99.90;24.20;100172.00;;;;6224626;22;20226;-76
2023/09/18 08:51:06;;;;;;;0.30;0.30;;;20.90;99.90;24.70;100166.00;;;;6250236;22;20223;-75
2023/09/18 08:53:35;;;;;;;0.57;0.57;;;21.00;99.90;23.60;100153.00;;;;6224072;22;20183;-77
2023/09/18 08:56:09;;;;;;;0.38;0.38;;;20.70;99.90;24.90;100169.00;;;;6250384;22;20137;-75
2023/09/18 08:58:42;;;;;;;0.50;0.50;;;21.00;99.90;24.70;100183.00;;;;6248133;22;20815;-76
2023/09/18 09:01:12;;;;;;;0.30;0.30;;;21.10;99.90;23.60;100167.00;;;;6296260;22;20243;-75
2023/09/18 09:03:42;;;;;;;0.30;0.30;;;20.80;99.90;23.80;100182.00;;;;6280048;22;20479;-75
2023/09/18 09:06:19;;;;;;;1.25;1.15;;;20.80;99.90;22.70;100167.00;;;;6254739;22;20148;-76
2023/09/18 09:09:04;;;;;;;0.30;0.30;;;20.40;99.90;23.70;100178.00;;;;6280505;22;20147;-75
2023/09/18 09:11:48;;;;;;;0.38;0.38;;;20.30;99.90;22.70;100189.00;;;;6280507;22;20607;-75
2023/09/18 09:17:03;;;;;;;0.30;0.30;;;20.10;99.90;23.10;100174.00;;;;6285035;22;20160;-75
2023/09/18 09:20:15;;;;;;;0.68;0.68;;;20.20;99.90;23.30;100179.00;;;;6280449;22;20137;-75
2023/09/18 09:22:50;;;;;;;0.30;0.30;;;20.60;99.90;23.50;100181.00;;;;6281538;22;20136;-75
2023/09/18 09:25:31;;;;;;;0.55;0.55;;;20.60;99.90;23.00;100174.00;;;;6280610;22;20162;-75
2023/09/18 09:28:03;;;;;;;2.58;2.25;;;20.50;99.90;22.60;100130.00;;;;6256067;22;20490;-76
2023/09/18 09:30:41;;;;;;;0.20;0.20;;;20.50;99.90;23.00;100173.00;;;;6280237;22;20232;-71
2023/09/18 09:33:14;;;;;;;0.55;0.55;;;20.30;99.90;24.30;100173.00;;;;6254569;22;20237;-76
2023/09/18 09:35:59;;;;;;;0.85;0.85;;;21.00;99.90;24.40;100185.00;;;;6307454;22;20466;-74
2023/09/18 09:38:33;;;;;;;0.22;0.22;;;21.70;99.90;24.70;100191.00;;;;6283269;22;20133;-83
2023/09/18 09:41:09;;;;;;;0.65;0.45;;;21.90;99.90;24.80;100192.00;;;;6280323;22;20145;-74
2023/09/18 09:43:43;;;;;;;0.25;0.25;;;21.80;99.90;23.80;100202.00;;;;6281378;22;20565;-82
2023/09/18 09:46:17;;;;;;;1.13;1.13;;;21.40;99.90;23.30;100198.00;;;;6254840;22;20147;-82
2023/09/18 09:49:05;;;;;;;0.20;0.20;;;21.10;99.90;24.70;100205.00;;;;6280150;22;20151;-83
2023/09/18 09:51:32;;;;;;;0.90;0.57;;;21.30;99.90;23.90;100201.00;;;;6307587;22;20561;-82
2023/09/18 09:54:39;;;;;;;1.67;1.58;;;21.10;99.90;23.60;100195.00;;;;6254886;22;20527;-79
2023/09/18 09:57:20;;;;;;;0.70;0.70;;;20.90;99.90;23.50;100190.00;;;;6256044;22;20152;-83
2023/09/18 09:59:51;;;;;;;0.20;0.20;;;20.90;99.90;23.80;100194.00;;;;6306138;22;20588;-74
2023/09/18 10:02:22;;;;;;;1.75;1.50;;;20.80;99.90;24.30;100181.00;;;;6307173;22;20144;-75
2023/09/18 10:04:49;;;;;;;0.20;0.20;;;21.00;99.90;24.00;100205.00;;;;6255249;22;20183;-72
2023/09/18 10:07:51;;;;;;;3.63;2.90;;;21.00;99.90;23.40;100205.00;;;;6279015;22;20256;-73
2023/09/18 10:10:38;;;;;;;1.42;1.42;;;20.80;99.90;24.40;100209.00;;;;6280187;22;20174;-73
2023/09/18 10:13:46;;;;;;;0.20;0.20;;;21.00;99.90;25.10;100242.00;;;;6254754;22;20216;-73
2023/09/18 10:16:25;;;;;;;0.50;0.50;;;21.50;99.90;25.40;100233.00;;;;6254801;22;20689;-74
2023/09/18 10:19:33;;;;;;;0.30;0.30;;;21.60;99.90;24.70;100231.00;;;;6254365;22;20163;-74
2023/09/18 10:33:48;;;;;;;0.20;0.20;;;20.30;99.90;24.00;100200.00;;;;5086615;27;1393699;-72
2023/09/18 10:36:37;;;;;;;0.50;0.50;;;20.80;99.90;24.90;100204.00;;;;5107100;28;20180;-72
2023/09/18 10:39:27;;;;;;;0.52;0.52;;;21.40;99.90;24.90;100204.00;;;;5085746;28;20630;-72
2023/09/18 10:42:06;;;;;;;0.60;0.60;;;21.60;99.90;26.00;100231.00;;;;5095776;28;20180;-74
2023/09/18 10:44:51;;;;;;;0.55;0.40;;;22.30;99.90;25.70;100227.00;;;;5088579;28;20187;-74
2023/09/18 10:47:27;;;;;;;0.45;0.45;;;22.70;99.90;24.70;100214.00;;;;5092145;28;20187;-74
2023/09/18 10:49:54;;;;;;;1.27;1.27;;;22.50;99.90;24.40;100170.00;;;;5085510;28;20172;-74
2023/09/18 10:52:33;;;;;;;0.10;0.10;;;22.20;99.90;26.00;100221.00;;;;5100073;28;20204;-74
2023/09/18 10:55:07;;;;;;;0.52;0.52;;;22.40;99.90;26.20;100223.00;;;;5100565;28;20197;-74
2023/09/18 10:58:02;;;;;;;0.60;0.60;;;22.80;99.90;27.40;100240.00;;;;5099351;28;20180;-75
2023/09/18 11:00:39;;;;;;;0.10;0.10;;;23.70;99.90;26.70;100237.00;;;;5099527;28;20181;-75
2023/09/18 11:03:18;;;;;;;0.50;0.50;;;23.60;99.90;25.50;100182.00;;;;5097231;28;20267;-75
2023/09/18 11:06:05;;;;;;;1.30;0.75;;;23.10;99.90;25.60;100228.00;;;;5098867;28;20268;-74
2023/09/18 11:09:03;;;;;;;0.30;0.30;;;22.90;99.90;25.10;100218.00;;;;5104254;28;20202;-74
2023/09/18 11:11:42;;;;;;;1.65;1.15;;;22.40;99.90;26.00;100238.00;;;;5100717;28;20663;-75
2023/09/18 11:14:50;;;;;;;1.02;0.47;;;22.50;99.90;25.60;100240.00;;;;5103029;28;20547;-75
2023/09/18 11:17:44;;;;;;;0.10;0.10;;;22.70;99.90;25.10;100238.00;;;;5110738;28;20176;-74
2023/09/18 11:20:25;;;;;;;0.10;0.10;;;22.10;99.90;25.30;100234.00;;;;5097673;28;20169;-75
2023/09/18 11:23:42;;;;;;;0.20;0.20;;;22.10;99.90;25.60;100234.00;;;;5110909;28;20187;-75
2023/09/18 11:26:17;;;;;;;0.20;0.20;;;22.10;99.90;25.30;100235.00;;;;5095088;28;20197;-75
2023/09/18 11:28:53;;;;;;;0.43;0.43;;;22.30;99.90;25.50;100222.00;;;;5102782;28;20169;-74
2023/09/18 11:31:37;;;;;;;2.05;0.65;;;22.40;99.90;26.20;100177.00;;;;5097344;28;20188;-75
2023/09/18 11:37:26;;;;;;;1.55;1.23;;;23.00;99.90;25.80;100204.00;;;;5118672;28;20241;-74
2023/09/18 11:40:11;;;;;;;0.40;0.40;;;23.20;99.90;27.00;100226.00;;;;5090358;28;20196;-76
2023/09/18 11:43:22;;;;;;;0.63;0.47;;;23.70;99.90;26.50;100197.00;;;;5106808;28;20195;-75
2023/09/18 11:46:09;;;;;;;0.43;0.43;;;23.50;99.90;25.50;100158.00;;;;5083126;28;20206;-75
2023/09/18 11:48:43;;;;;;;0.60;0.50;;;23.10;99.90;25.00;100184.00;;;;5102938;28;20189;-75
2023/09/18 11:51:11;;;;;;;0.17;0.17;;;22.80;99.90;27.00;100205.00;;;;5105595;28;20184;-75
2023/09/18 11:54:09;;;;;;;0.35;0.35;;;23.30;99.90;28.20;100200.00;;;;5107246;28;20197;-75
2023/09/18 11:56:47;;;;;;;2.55;1.08;;;24.30;99.90;26.70;100181.00;;;;5078081;28;20231;-74
2023/09/18 11:59:46;;;;;;;0.98;0.90;;;24.00;99.90;26.80;100196.00;;;;5089251;28;20234;-75
2023/09/18 12:02:42;;;;;;;0.98;0.98;;;23.90;99.90;27.40;100194.00;;;;5085239;28;20602;-75
2023/09/18 12:05:19;;;;;;;0.25;0.25;;;24.10;99.90;26.50;100194.00;;;;5080545;28;20194;-75
2023/09/18 12:07:53;;;;;;;0.57;0.57;;;23.90;99.90;25.90;100179.00;;;;5091145;28;20255;-75
2023/09/18 12:10:25;;;;;;;1.70;1.60;;;23.60;99.90;26.00;100167.00;;;;5086639;28;20186;-74
2023/09/18 12:12:56;;;;;;;0.10;0.10;;;23.60;99.90;26.30;100152.00;;;;5096985;28;20205;-74
2023/09/18 12:15:29;;;;;;;0.30;0.30;;;23.60;99.90;27.50;100180.00;;;;5085857;28;20542;-74
2023/09/18 12:18:07;;;;;;;0.10;0.10;;;24.00;99.90;27.80;100174.00;;;;5077270;28;20184;-71
2023/09/18 12:20:44;;;;;;;0.45;0.45;;;24.00;99.90;28.10;100189.00;;;;5090042;28;20540;-71
2023/09/18 12:23:20;;;;;;;0.52;0.52;;;24.50;99.90;26.50;100180.00;;;;5086268;28;20189;-70
2023/09/18 12:26:10;;;;;;;0.22;0.22;;;24.30;99.90;28.50;100189.00;;;;5080196;28;20188;-71
2023/09/18 12:28:43;;;;;;;0.47;0.47;;;24.60;99.90;28.00;100162.00;;;;5089954;28;20178;-71
2023/09/18 12:31:18;;;;;;;0.10;0.10;;;24.70;99.90;28.10;100182.00;;;;5083177;28;20188;-71
2023/09/18 12:33:48;;;;;;;1.75;1.33;;;24.70;99.90;26.70;100171.00;;;;5106975;28;20195;-71
2023/09/18 12:36:40;;;;;;;0.20;0.20;;;24.40;99.90;26.80;100155.00;;;;5092079;28;20231;-71
2023/09/18 12:39:19;;;;;;;0.63;0.63;;;24.00;99.90;27.40;100126.00;;;;5084184;28;20272;-71
2023/09/18 12:42:04;;;;;;;0.50;0.47;;;24.20;99.90;27.20;100125.00;;;;5090334;28;20200;-75
2023/09/18 12:44:33;;;;;;;0.30;0.30;;;24.30;99.90;26.80;100137.00;;;;5093634;28;20250;-72
2023/09/18 12:47:22;;;;;;;0.50;0.50;;;24.10;99.90;26.40;100138.00;;;;5071720;28;20177;-72
2023/09/18 12:49:48;;;;;;;4.57;1.15;;;23.80;99.90;26.00;100117.00;;;;5071430;28;20199;-72
2023/09/18 12:52:24;;;;;;;0.98;0.63;;;23.60;99.90;26.70;100145.00;;;;5085139;28;20242;-72
2023/09/18 12:54:59;;;;;;;0.30;0.30;;;23.80;99.90;27.20;100111.00;;;;5084275;28;20216;-71
2023/09/18 12:57:26;;;;;;;0.10;0.10;;;23.90;99.90;26.60;100095.00;;;;5090471;28;20188;-72
2023/09/18 12:59:54;;;;;;;0.32;0.32;;;23.80;99.90;26.50;100139.00;;;;5088171;28;20219;-72
2023/09/18 13:02:23;;;;;;;0.20;0.20;;;23.70;99.90;26.70;100136.00;;;;5078404;28;20634;-72
2023/09/18 13:05:03;;;;;;;0.55;0.50;;;23.70;99.90;27.00;100136.00;;;;5089347;28;20235;-71
2023/09/18 13:07:32;;;;;;;1.13;0.80;;;23.90;99.90;25.90;100123.00;;;;5061125;28;20199;-71
2023/09/18 13:10:11;;;;;;;0.50;0.50;;;23.60;99.90;26.80;100079.00;;;;5078043;28;20252;-71
2023/09/18 13:12:59;;;;;;;2.53;1.25;;;23.80;99.90;26.50;100104.00;;;;5087268;28;20201;-72
2023/09/18 13:15:38;;;;;;;0.25;0.25;;;23.80;99.90;26.80;100112.00;;;;5086311;28;20222;-71
2023/09/18 13:18:28;;;;;;;1.58;0.77;;;23.90;99.90;26.50;100099.00;;;;5086408;28;20657;-72
2023/09/18 13:21:36;;;;;;;6.50;1.17;;;23.90;99.90;26.40;100101.00;;;;5080900;28;20209;-71
2023/09/18 13:24:24;;;;;;;1.17;0.50;;;23.70;99.90;26.30;100106.00;;;;5076276;28;20205;-71
2023/09/18 13:27:00;;;;;;;0.63;0.63;;;23.70;99.90;26.60;100099.00;;;;5092401;28;20181;-71
2023/09/18 13:29:30;;;;;;;0.95;0.95;;;23.80;99.90;26.60;100050.00;;;;5091974;28;20224;-71
2023/09/18 13:32:11;;;;;;;0.20;0.20;;;23.70;99.90;26.60;100079.00;;;;5090666;28;20209;-71
2023/09/18 13:34:42;;;;;;;0.10;0.10;;;23.60;99.90;27.30;100075.00;;;;5089340;28;20261;-72
2023/09/18 13:37:32;;;;;;;1.88;0.95;;;23.70;99.90;26.90;100091.00;;;;5081156;28;20549;-71
2023/09/18 13:40:08;;;;;;;0.85;0.70;;;23.90;99.90;26.00;100045.00;;;;5064994;28;20296;-71
2023/09/18 13:42:38;;;;;;;0.35;0.35;;;23.50;99.90;26.40;100076.00;;;;5095851;28;20228;-71
2023/09/18 13:45:08;;;;;;;0.57;0.57;;;23.60;99.90;25.70;100042.00;;;;5086611;28;20189;-71
2023/09/18 13:47:35;;;;;;;0.20;0.20;;;23.40;99.90;26.80;100125.00;;;;5085174;28;20177;-72
2023/09/18 13:50:13;;;;;;;5.03;1.27;;;23.50;99.90;22.90;100152.00;;;;5091966;28;20769;-72
2023/09/18 13:52:55;;;;;;;5.32;1.45;;;22.60;99.90;19.80;100086.00;;;;5083826;28;20548;-72
2023/09/18 13:55:53;;;;;;;5.03;2.00;;;19.20;99.90;19.30;100121.00;;;;5074565;28;20239;-70
2023/09/18 13:58:32;;;;;;;3.33;0.88;;;18.10;99.90;20.10;100132.00;;;;5069175;28;20192;-71
2023/09/18 14:01:05;;;;;;;2.37;1.43;;;17.60;99.90;19.60;100161.00;;;;5079260;28;20194;-71
2023/09/18 14:03:34;;;;;;;2.53;2.20;;;17.60;99.90;18.50;100203.00;;;;5079585;28;20200;-70
2023/09/18 14:06:04;;;;;;;1.10;1.10;;;17.30;99.90;19.30;100188.00;;;;5090939;28;20201;-71
2023/09/18 14:08:33;;;;;;;1.10;1.10;;;17.30;99.90;20.60;100181.00;;;;5072940;28;20270;-70
2023/09/18 14:10:59;;;;;;;0.90;0.90;;;17.60;99.90;21.40;100148.00;;;;5088396;28;20591;-71
2023/09/18 14:13:34;;;;;;;0.83;0.83;;;18.00;99.90;21.60;100137.00;;;;5088711;28;20207;-71
2023/09/18 14:16:03;;;;;;;1.10;1.10;;;18.10;99.90;20.70;100102.00;;;;5082337;28;20541;-70
2023/09/18 14:18:53;;;;;;;1.03;1.03;;;17.90;99.90;20.10;100119.00;;;;5075920;28;20218;-70
2023/09/18 14:21:20;;;;;;;0.90;0.90;;;17.90;99.90;20.70;100123.00;;;;5082320;28;20586;-70
2023/09/18 14:23:52;;;;;;;1.00;1.00;;;17.90;99.90;21.30;100082.00;;;;5111028;27;20551;-67
2023/09/18 14:27:02;;;;;;;1.23;1.23;;;18.30;99.90;20.50;100104.00;;;;5086863;28;20188;-71
2023/09/18 14:29:30;;;;;;;1.00;1.00;;;18.30;99.90;21.00;100098.00;;;;5071959;28;20233;-71
2023/09/18 14:32:04;;;;;;;1.10;1.10;;;18.30;99.90;22.10;100079.00;;;;5098186;28;20703;-71
2023/09/18 14:34:35;;;;;;;1.40;1.40;;;18.60;99.90;22.10;100073.00;;;;5099188;28;20254;-67
2023/09/18 14:37:31;;;;;;;1.10;1.10;;;18.90;99.90;22.90;100060.00;;;;5090961;28;20287;-67
2023/09/18 14:40:03;;;;;;;1.60;1.50;;;19.40;99.90;22.80;100025.00;;;;5099068;28;20186;-77
2023/09/18 14:42:38;;;;;;;1.10;1.10;;;19.70;99.90;22.10;100054.00;;;;5086215;28;20172;-75
2023/09/18 14:45:07;;;;;;;1.30;1.30;;;19.70;99.90;23.10;100068.00;;;;5070272;28;20203;-70
2023/09/18 14:47:43;;;;;;;1.33;1.33;;;19.80;99.90;22.50;100070.00;;;;5092593;28;20564;-83
2023/09/18 14:50:09;;;;;;;1.10;1.10;;;19.70;99.90;22.40;100001.00;;;;5083823;28;20185;-80
2023/09/18 14:52:35;;;;;;;1.40;1.40;;;19.60;99.90;21.70;100075.00;;;;5079933;28;20295;-82
2023/09/18 14:55:10;;;;;;;1.10;1.10;;;19.50;99.90;22.40;100077.00;;;;5078997;28;20169;-82
2023/09/18 14:57:37;;;;;;;1.67;1.63;;;19.50;99.90;22.70;100066.00;;;;5091019;28;20191;-78
2023/09/18 15:00:05;;;;;;;1.70;1.60;;;19.70;99.90;23.00;100026.00;;;;5078356;28;20185;-82
2023/09/18 15:02:33;;;;;;;1.10;1.10;;;20.00;99.90;22.90;100038.00;;;;5076287;28;20267;-70
2023/09/18 15:05:06;;;;;;;1.20;1.20;;;20.00;99.90;23.40;100008.00;;;;5085669;28;20193;-75
2023/09/18 15:07:36;;;;;;;1.08;1.08;;;20.30;99.90;24.00;100029.00;;;;5078228;28;20234;-69
2023/09/18 15:10:05;;;;;;;1.10;1.10;;;20.50;99.90;24.00;100023.00;;;;5083989;28;20186;-75
2023/09/18 15:12:30;;;;;;;1.00;1.00;;;20.70;99.90;23.60;100028.00;;;;5082186;28;20193;-73
2023/09/18 15:15:19;;;;;;;0.90;0.90;;;20.70;99.90;23.70;100029.00;;;;5078914;28;20246;-74
2023/09/18 15:17:48;;;;;;;0.70;0.70;;;20.80;99.90;23.00;100021.00;;;;5073965;28;20521;-74
2023/09/18 15:20:17;;;;;;;1.13;1.13;;;20.80;99.90;22.40;99991.00;;;;5115315;27;20185;-74
2023/09/18 15:22:48;;;;;;;0.70;0.70;;;20.60;99.90;24.30;99966.00;;;;5089554;28;20647;-75
2023/09/18 15:25:21;;;;;;;2.55;2.35;;;20.90;99.90;24.40;100015.00;;;;5079718;28;20180;-75
2023/09/18 15:27:47;;;;;;;0.98;0.98;;;21.20;99.90;24.60;100018.00;;;;5077133;28;20192;-74
2023/09/18 15:30:24;;;;;;;0.55;0.55;;;21.40;99.90;24.10;99989.00;;;;5085709;28;20655;-74
2023/09/18 15:32:57;;;;;;;0.60;0.60;;;21.40;99.90;24.40;99995.00;;;;5086555;28;20208;-75
2023/09/18 15:35:24;;;;;;;0.60;0.60;;;21.30;99.90;24.20;100020.00;;;;5097182;28;20192;-75
2023/09/18 15:37:52;;;;;;;1.65;0.90;;;21.30;99.90;24.10;100008.00;;;;5119657;27;20666;-69
2023/09/18 15:40:20;;;;;;;0.88;0.60;;;21.40;99.90;23.70;100009.00;;;;5082626;28;20193;-75
2023/09/18 15:42:52;;;;;;;0.63;0.63;;;21.10;99.90;23.90;100012.00;;;;5087072;28;20290;-76
2023/09/18 15:45:21;;;;;;;1.33;1.23;;;21.10;99.90;23.20;100023.00;;;;5077168;28;20200;-74
2023/09/18 15:47:53;;;;;;;0.40;0.40;;;21.10;99.90;24.70;100028.00;;;;5074725;28;20242;-75
2023/09/18 15:50:19;;;;;;;0.30;0.30;;;21.40;99.90;24.10;100030.00;;;;5087926;28;20185;-76
2023/09/18 15:52:51;;;;;;;1.40;0.98;;;21.50;99.90;24.60;100023.00;;;;5078735;28;20224;-74
2023/09/18 15:55:17;;;;;;;1.98;0.90;;;21.50;99.90;23.60;99997.00;;;;5091931;28;20284;-70
2023/09/18 15:57:43;;;;;;;0.20;0.20;;;21.30;99.90;25.00;100037.00;;;;5093077;28;20693;-72
2023/09/18 16:00:17;;;;;;;0.60;0.28;;;21.60;99.90;24.80;100063.00;;;;5100345;28;20208;-72
2023/09/18 16:02:51;;;;;;;1.42;0.95;;;21.70;99.90;23.50;100053.00;;;;5090533;28;20280;-71
2023/09/18 16:05:19;;;;;;;0.50;0.50;;;21.40;99.90;23.90;100073.00;;;;5084016;28;20208;-71
2023/09/18 16:08:15;;;;;;;0.20;0.20;;;21.30;99.90;23.80;100042.00;;;;5090587;28;20177;-68
2023/09/18 16:10:40;;;;;;;0.30;0.30;;;21.10;99.90;24.20;100030.00;;;;5024912;28;20205;-72
2023/09/18 16:13:36;;;;;;;0.20;0.20;;;21.00;99.90;25.20;100096.00;;;;5070484;28;20216;-69
2023/09/18 16:16:02;;;;;;;0.68;0.68;;;21.40;99.90;24.80;100090.00;;;;5089263;28;20192;-68
2023/09/18 16:18:28;;;;;;;0.22;0.22;;;21.60;99.90;24.20;100068.00;;;;5093782;28;20191;-67
2023/09/18 16:21:15;;;;;;;0.50;0.28;;;21.30;99.90;24.70;100099.00;;;;5092496;28;20230;-66
2023/09/18 16:23:43;;;;;;;0.35;0.35;;;21.40;99.90;24.60;100109.00;;;;5093119;28;20524;-68
2023/09/18 16:26:10;;;;;;;0.70;0.70;;;21.40;99.90;24.50;100107.00;;;;5104057;28;20177;-69
2023/09/18 16:28:38;;;;;;;0.30;0.30;;;21.40;99.90;24.30;100109.00;;;;5087227;28;20553;-67
2023/09/18 16:31:06;;;;;;;0.20;0.20;;;21.30;99.90;24.20;100073.00;;;;5096993;28;20245;-67
2023/09/18 16:33:43;;;;;;;0.85;0.85;;;21.10;99.90;23.70;100111.00;;;;5099045;28;20216;-68
2023/09/18 16:36:16;;;;;;;0.30;0.30;;;21.00;99.90;24.20;100126.00;;;;5088189;28;20182;-68
2023/09/18 16:38:43;;;;;;;1.77;1.60;;;21.10;99.90;23.70;100119.00;;;;5092686;28;20191;-68
2023/09/18 16:41:10;;;;;;;0.55;0.55;;;21.10;99.90;22.40;100117.00;;;;5093701;28;20226;-68
2023/09/18 16:43:42;;;;;;;0.22;0.22;;;20.70;99.90;23.50;100128.00;;;;5091530;28;20200;-67
2023/09/18 16:46:16;;;;;;;2.47;1.00;;;20.70;99.90;22.50;100109.00;;;;5104832;28;20184;-67
2023/09/18 16:48:45;;;;;;;0.50;0.35;;;20.50;99.90;22.80;100133.00;;;;5093123;28;20189;-67
2023/09/18 16:51:11;;;;;;;0.30;0.30;;;20.40;99.90;22.60;100132.00;;;;5089978;28;20177;-67
2023/09/18 16:54:00;;;;;;;0.68;0.50;;;20.40;99.90;22.50;100136.00;;;;5085357;28;20208;-66
2023/09/18 16:56:41;;;;;;;0.85;0.85;;;20.40;99.90;22.80;100135.00;;;;5104284;28;20181;-66
2023/09/18 16:59:10;;;;;;;0.20;0.20;;;20.40;99.90;23.60;100128.00;;;;5093066;28;20181;-69
2023/09/18 17:01:45;;;;;;;0.20;0.20;;;20.50;99.90;23.80;100094.00;;;;5094027;28;20196;-68
2023/09/18 17:04:11;;;;;;;0.20;0.20;;;20.60;99.90;24.20;100143.00;;;;5090806;28;20318;-69
2023/09/18 17:06:40;;;;;;;0.20;0.20;;;20.90;99.90;23.70;100113.00;;;;5092107;28;20234;-68
2023/09/18 17:09:12;;;;;;;0.25;0.25;;;20.80;99.90;23.30;100134.00;;;;5092030;28;20196;-69
2023/09/18 17:12:00;;;;;;;0.20;0.20;;;20.50;99.90;23.90;100148.00;;;;5086718;28;20692;-69
2023/09/18 17:14:38;;;;;;;0.20;0.20;;;20.70;99.90;23.30;100149.00;;;;5082353;28;20205;-69
2023/09/18 17:17:05;;;;;;;0.20;0.20;;;20.70;99.90;23.00;100149.00;;;;5093602;28;20651;-70
2023/09/18 17:19:31;;;;;;;0.40;0.40;;;20.50;99.90;23.30;100151.00;;;;5085211;28;20272;-70
2023/09/18 17:22:03;;;;;;;0.50;0.50;;;20.60;99.90;23.30;100158.00;;;;5089990;28;20188;-70
2023/09/18 17:24:37;;;;;;;0.17;0.17;;;20.60;99.90;23.60;100162.00;;;;5081993;28;20584;-70
2023/09/18 17:27:08;;;;;;;0.20;0.20;;;20.50;99.90;23.10;100153.00;;;;5101577;28;20586;-70
2023/09/18 17:29:37;;;;;;;2.08;0.90;;;20.60;99.90;21.80;100171.00;;;;5089833;28;20545;-70
2023/09/18 17:32:03;;;;;;;0.10;0.10;;;20.30;99.90;22.50;100181.00;;;;5093487;28;20212;-70
2023/09/18 17:34:30;;;;;;;0.38;0.38;;;20.20;99.90;22.10;100176.00;;;;5089440;28;20234;-69
2023/09/18 17:36:56;;;;;;;1.88;0.55;;;20.00;99.90;21.50;100184.00;;;;5078158;28;20201;-69
2023/09/18 17:39:25;;;;;;;1.05;0.95;;;19.90;99.90;22.00;100190.00;;;;5089685;28;20212;-70
2023/09/18 17:41:54;;;;;;;1.63;1.02;;;19.80;99.90;21.90;100162.00;;;;5087669;28;20181;-70
2023/09/18 17:44:23;;;;;;;1.42;1.25;;;19.80;99.90;22.20;100161.00;;;;5081962;28;20210;-70
2023/09/18 17:46:49;;;;;;;0.73;0.38;;;19.80;99.90;22.00;100188.00;;;;5102291;28;20190;-69
2023/09/18 17:49:24;;;;;;;1.35;0.70;;;19.70;99.90;21.70;100213.00;;;;5091156;28;20251;-70
2023/09/18 17:52:11;;;;;;;2.75;1.17;;;19.70;99.90;22.20;100209.00;;;;5087143;28;20200;-69
2023/09/18 17:55:04;;;;;;;7.90;1.25;;;19.70;99.90;22.20;100214.00;;;;5091086;28;20183;-68
2023/09/18 17:57:38;;;;;;;0.85;0.85;;;19.80;99.90;22.50;100238.00;;;;5046628;28;20586;-71
2023/09/18 18:00:41;;;;;;;3.85;0.60;;;19.80;99.90;22.30;100232.00;;;;5088469;28;20191;-70
2023/09/18 18:03:07;;;;;;;2.08;1.40;;;19.80;99.90;22.50;100235.00;;;;5079723;28;20548;-70
2023/09/18 18:05:53;;;;;;;0.20;0.20;;;19.70;99.90;22.00;100233.00;;;;5090005;28;20192;-71
2023/09/18 18:08:22;;;;;;;5.38;1.10;;;19.50;99.90;21.10;100229.00;;;;5090726;28;20549;-70
2023/09/18 18:10:51;;;;;;;0.40;0.40;;;19.30;99.90;21.60;100200.00;;;;5079509;28;20207;-70
2023/09/18 18:13:23;;;;;;;0.40;0.30;;;19.40;99.90;21.50;100201.00;;;;5096277;28;20283;-70
2023/09/18 18:15:49;;;;;;;2.45;0.73;;;19.30;99.90;21.80;100254.00;;;;5085995;28;20189;-70
2023/09/18 18:18:21;;;;;;;1.67;0.60;;;19.30;99.90;21.70;100222.00;;;;5091964;28;20181;-70
2023/09/18 18:20:56;;;;;;;1.45;0.75;;;19.30;99.90;21.80;100245.00;;;;5096362;28;20189;-70
2023/09/18 18:23:25;;;;;;;0.10;0.10;;;19.30;99.90;22.50;100258.00;;;;5066511;28;20238;-70
2023/09/18 18:25:54;;;;;;;2.03;0.73;;;19.50;99.90;21.20;100202.00;;;;5085796;28;20216;-70
2023/09/18 18:28:23;;;;;;;1.85;1.00;;;19.20;99.90;21.50;100274.00;;;;5096125;28;20288;-70
2023/09/18 18:30:56;;;;;;;3.13;0.85;;;19.20;99.90;20.50;100263.00;;;;5106575;28;20185;-70
2023/09/18 18:33:22;;;;;;;5.88;1.10;;;18.90;99.90;20.90;100271.00;;;;5085809;28;20221;-70
2023/09/18 18:35:49;;;;;;;0.20;0.20;;;18.90;99.90;20.50;100277.00;;;;5098275;28;20608;-70
2023/09/18 18:38:32;;;;;;;1.15;0.52;;;18.70;99.90;21.70;100295.00;;;;5077858;28;20239;-70
2023/09/18 18:41:15;;;;;;;0.67;0.40;;;19.00;99.90;21.10;100278.00;;;;5085357;28;20195;-70
2023/09/18 18:43:53;;;;;;;1.00;1.00;;;18.70;99.90;20.90;100290.00;;;;5099921;28;20196;-69